| time (UTC) | temp C | wind direction | speed KPH | gust KPH | rain 1hr cm | rain 24hr cm | rain mn cm | humidity % | barometer mb |
| 20260507225322 | 16 | 358 | 6.4 | 19.3 | 0.00 | 0.13 | 0.00 | 81 | 975.6 |
| 20260507224826 | 16 | 341 | 8.0 | 19.3 | 0.00 | 0.13 | 0.00 | 81 | 975.6 |
| 20260507224322 | 16 | 320 | 6.4 | 16.1 | 0.00 | 0.13 | 0.00 | 81 | 975.8 |
| 20260507223312 | 16 | 343 | 3.2 | 8.0 | 0.00 | 0.15 | 0.00 | 81 | 975.7 |
| 20260507222810 | 15 | 324 | 4.8 | 8.0 | 0.00 | 0.15 | 0.00 | 81 | 975.7 |
| 20260507221809 | 15 | 348 | 6.4 | 11.3 | 0.00 | 0.15 | 0.00 | 82 | 975.8 |
| 20260507220809 | 15 | 299 | 4.8 | 9.7 | 0.00 | 0.15 | 0.00 | 81 | 975.7 |
| 20260507220308 | 15 | 312 | 3.2 | 8.0 | 0.00 | 0.15 | 0.00 | 81 | 975.9 |
| 20260507215809 | 15 | 307 | 3.2 | 8.0 | 0.00 | 0.15 | 0.15 | 81 | 975.9 |
| 20260507215310 | 15 | 316 | 3.2 | 6.4 | 0.00 | 0.15 | 0.15 | 82 | 976.0 |
| 20260507214809 | 15 | 346 | 3.2 | 6.4 | 0.00 | 0.15 | 0.15 | 82 | 975.9 |
| 20260507214305 | 15 | 301 | 3.2 | 6.4 | 0.00 | 0.15 | 0.15 | 82 | 975.9 |
| 20260507213805 | 15 | 326 | 3.2 | 6.4 | 0.00 | 0.15 | 0.15 | 83 | 975.9 |
| 20260507213305 | 15 | 17 | 3.2 | 4.8 | 0.00 | 0.15 | 0.15 | 84 | 975.9 |
| 20260507212805 | 15 | 326 | 1.6 | 4.8 | 0.00 | 0.15 | 0.15 | 84 | 975.9 |
| 20260507212300 | 15 | 344 | 3.2 | 6.4 | 0.00 | 0.15 | 0.15 | 85 | 975.8 |
| 20260507211800 | 15 | 356 | 3.2 | 6.4 | 0.00 | 0.15 | 0.15 | 85 | 975.9 |
| 20260507211302 | 15 | 322 | 1.6 | 4.8 | 0.00 | 0.15 | 0.15 | 84 | 975.9 |
| 20260507210814 | 16 | 289 | 1.6 | 6.4 | 0.00 | 0.15 | 0.15 | 84 | 976.0 |
| 20260507210258 | 16 | 359 | 3.2 | 6.4 | 0.00 | 0.15 | 0.15 | 84 | 976.0 |
| 20260507205258 | 16 | 309 | 3.2 | 6.4 | 0.00 | 0.15 | 0.15 | 83 | 976.0 |
| 20260507204758 | 16 | 284 | 3.2 | 6.4 | 0.00 | 0.15 | 0.15 | 83 | 975.9 |
| 20260507204258 | 16 | 321 | 3.2 | 6.4 | 0.00 | 0.15 | 0.15 | 83 | 976.0 |
| 20260507203800 | 16 | 332 | 3.2 | 6.4 | 0.00 | 0.15 | 0.15 | 84 | 975.9 |
| 20260507203301 | 16 | 345 | 1.6 | 6.4 | 0.00 | 0.15 | 0.15 | 84 | 976.0 |
| 20260507202757 | 16 | 302 | 1.6 | 3.2 | 0.00 | 0.15 | 0.15 | 84 | 975.9 |
| 20260507202255 | 16 | 311 | 1.6 | 4.8 | 0.00 | 0.15 | 0.15 | 85 | 976.0 |
| 20260507201757 | 16 | 323 | 1.6 | 6.4 | 0.00 | 0.15 | 0.15 | 86 | 976.0 |
| 20260507201255 | 16 | 324 | 0.0 | 6.4 | 0.00 | 0.15 | 0.15 | 87 | 975.9 |
| 20260507200749 | 15 | 299 | 0.0 | 0.0 | 0.00 | 0.15 | 0.15 | 86 | 976.0 |
| 20260507200302 | 15 | 300 | 0.0 | 0.0 | 0.00 | 0.15 | 0.15 | 85 | 976.0 |
| 20260507195247 | 16 | 305 | 0.0 | 0.0 | 0.00 | 0.15 | 0.15 | 84 | 975.9 |
| 20260507194743 | 16 | 310 | 0.0 | 0.0 | 0.00 | 0.15 | 0.15 | 83 | 975.9 |
| 20260507194241 | 16 | 310 | 0.0 | 1.6 | 0.00 | 0.15 | 0.15 | 82 | 976.0 |
| 20260507193738 | 16 | 310 | 0.0 | 3.2 | 0.00 | 0.15 | 0.15 | 82 | 975.9 |
| 20260507193240 | 16 | 307 | 3.2 | 9.7 | 0.00 | 0.15 | 0.15 | 82 | 975.9 |
| 20260507192740 | 17 | 61 | 3.2 | 9.7 | 0.00 | 0.15 | 0.15 | 82 | 975.8 |
| 20260507191741 | 17 | 291 | 1.6 | 4.8 | 0.00 | 0.15 | 0.15 | 78 | 975.7 |
| 20260507190737 | 17 | 292 | 1.6 | 4.8 | 0.00 | 0.15 | 0.15 | 77 | 975.6 |
| 20260507190234 | 17 | 297 | 1.6 | 4.8 | 0.00 | 0.15 | 0.15 | 77 | 975.6 |
| 20260507185735 | 17 | 293 | 1.6 | 4.8 | 0.00 | 0.15 | 0.15 | 76 | 975.6 |
| 20260507185230 | 17 | 310 | 0.0 | 4.8 | 0.00 | 0.15 | 0.15 | 75 | 975.5 |
| 20260507184725 | 17 | 282 | 0.0 | 1.6 | 0.00 | 0.15 | 0.15 | 75 | 975.6 |
| 20260507184219 | 17 | 276 | 1.6 | 3.2 | 0.00 | 0.15 | 0.15 | 74 | 975.7 |
| 20260507183718 | 17 | 268 | 1.6 | 3.2 | 0.00 | 0.15 | 0.15 | 73 | 975.6 |
| 20260507183216 | 17 | 274 | 0.0 | 0.0 | 0.00 | 0.15 | 0.15 | 73 | 975.6 |
| 20260507182712 | 17 | 277 | 0.0 | 0.0 | 0.00 | 0.15 | 0.15 | 72 | 975.6 |
| 20260507182212 | 17 | 276 | 0.0 | 0.0 | 0.00 | 0.15 | 0.15 | 72 | 975.8 |
| 20260507181711 | 18 | 276 | 0.0 | 0.0 | 0.00 | 0.15 | 0.15 | 71 | 975.8 |
| 20260507181213 | 18 | 282 | 0.0 | 0.0 | 0.00 | 0.15 | 0.15 | 72 | 975.8 |
| 20260507180712 | 18 | 263 | 0.0 | 1.6 | 0.00 | 0.15 | 0.15 | 70 | 975.7 |
| 20260507180208 | 18 | 257 | 0.0 | 1.6 | 0.00 | 0.15 | 0.15 | 70 | 975.7 |
| 20260507175708 | 18 | 256 | 1.6 | 3.2 | 0.00 | 0.15 | 0.15 | 70 | 975.7 |
| 20260507175208 | 18 | 260 | 1.6 | 3.2 | 0.00 | 0.15 | 0.15 | 69 | 975.8 |
| 20260507174708 | 19 | 265 | 1.6 | 3.2 | 0.00 | 0.15 | 0.15 | 67 | 975.7 |
| 20260507174210 | 20 | 280 | 0.0 | 1.6 | 0.00 | 0.15 | 0.15 | 64 | 975.6 |
| 20260507173707 | 20 | 274 | 0.0 | 1.6 | 0.00 | 0.15 | 0.15 | 63 | 975.7 |
| 20260507173202 | 21 | 281 | 0.0 | 1.6 | 0.00 | 0.15 | 0.15 | 61 | 975.7 |
| 20260507172656 | 20 | 20 | 0.0 | 3.2 | 0.00 | 0.15 | 0.15 | 61 | 975.7 |
| 20260507172153 | 20 | 27 | 1.6 | 4.8 | 0.00 | 0.15 | 0.15 | 61 | 975.7 |
| 20260507171653 | 20 | 318 | 3.2 | 4.8 | 0.00 | 0.15 | 0.15 | 60 | 975.7 |
| 20260507171153 | 20 | 17 | 1.6 | 4.8 | 0.00 | 0.15 | 0.15 | 60 | 975.7 |
| 20260507170654 | 21 | 297 | 1.6 | 3.2 | 0.00 | 0.15 | 0.15 | 62 | 975.6 |
| 20260507170152 | 20 | 306 | 1.6 | 3.2 | 0.00 | 0.15 | 0.15 | 63 | 975.6 |
| 20260507165650 | 20 | 4 | 3.2 | 6.4 | 0.00 | 0.15 | 0.15 | 63 | 975.6 |
| 20260507165151 | 20 | 9 | 4.8 | 6.4 | 0.00 | 0.15 | 0.15 | 64 | 975.5 |
| 20260507164652 | 20 | 4 | 4.8 | 6.4 | 0.00 | 0.15 | 0.15 | 65 | 975.6 |
| 20260507163651 | 21 | 35 | 3.2 | 4.8 | 0.00 | 0.15 | 0.15 | 59 | 975.5 |
| 20260507163151 | 21 | 27 | 3.2 | 6.4 | 0.00 | 0.15 | 0.15 | 58 | 975.4 |
| 20260507162651 | 21 | 18 | 3.2 | 6.4 | 0.00 | 0.15 | 0.15 | 57 | 975.5 |
| 20260507161648 | 20 | 354 | 3.2 | 6.4 | 0.00 | 0.15 | 0.15 | 58 | 975.4 |
| 20260507161146 | 20 | 356 | 4.8 | 6.4 | 0.00 | 0.15 | 0.15 | 59 | 975.5 |
| 20260507155645 | 20 | 1 | 4.8 | 8.0 | 0.00 | 0.15 | 0.15 | 58 | 975.5 |
| 20260507155148 | 20 | 59 | 3.2 | 8.0 | 0.00 | 0.15 | 0.15 | 60 | 975.6 |
| 20260507154146 | 20 | 340 | 4.8 | 8.0 | 0.00 | 0.15 | 0.15 | 60 | 975.6 |
| 20260507153650 | 20 | 30 | 4.8 | 8.0 | 0.00 | 0.15 | 0.15 | 58 | 975.6 |
| 20260507153149 | 20 | 13 | 3.2 | 6.4 | 0.00 | 0.15 | 0.15 | 64 | 975.6 |
| 20260507152646 | 20 | 44 | 4.8 | 8.0 | 0.00 | 0.15 | 0.15 | 64 | 975.7 |
| 20260507152142 | 20 | 26 | 4.8 | 8.0 | 0.00 | 0.15 | 0.15 | 65 | 975.8 |
| 20260507151645 | 20 | 28 | 3.2 | 8.0 | 0.00 | 0.15 | 0.15 | 66 | 975.8 |
| 20260507151201 | 20 | 25 | 3.2 | 6.4 | 0.00 | 0.15 | 0.15 | 68 | 975.8 |
| 20260507150645 | 20 | 32 | 3.2 | 6.4 | 0.00 | 0.15 | 0.15 | 70 | 975.7 |
| 20260507150144 | 20 | 46 | 4.8 | 8.0 | 0.00 | 0.15 | 0.15 | 71 | 975.9 |
| 20260507145639 | 20 | 356 | 4.8 | 8.0 | 0.00 | 0.15 | 0.15 | 70 | 975.8 |
| 20260507145141 | 20 | 24 | 3.2 | 6.4 | 0.00 | 0.15 | 0.15 | 69 | 975.8 |
| 20260507144642 | 21 | 22 | 3.2 | 6.4 | 0.00 | 0.15 | 0.15 | 69 | 975.8 |
| 20260507144142 | 20 | 43 | 3.2 | 6.4 | 0.00 | 0.15 | 0.15 | 66 | 975.8 |
| 20260507143641 | 20 | 53 | 3.2 | 6.4 | 0.00 | 0.15 | 0.15 | 70 | 975.9 |
| 20260507142643 | 20 | 22 | 3.2 | 9.7 | 0.00 | 0.15 | 0.15 | 69 | 976.0 |
| 20260507142140 | 20 | 3 | 3.2 | 11.3 | 0.00 | 0.15 | 0.15 | 69 | 976.0 |
| 20260507141640 | 20 | 41 | 4.8 | 11.3 | 0.00 | 0.15 | 0.15 | 71 | 976.1 |
| 20260507141141 | 20 | 57 | 6.4 | 9.7 | 0.00 | 0.15 | 0.15 | 71 | 976.0 |
| 20260507140642 | 20 | 51 | 6.4 | 9.7 | 0.00 | 0.15 | 0.15 | 74 | 976.2 |
| 20260507140141 | 20 | 49 | 4.8 | 9.7 | 0.00 | 0.15 | 0.15 | 70 | 976.2 |
| 20260507135143 | 20 | 46 | 4.8 | 9.7 | 0.00 | 0.15 | 0.15 | 72 | 976.4 |
| 20260507134642 | 20 | 46 | 4.8 | 9.7 | 0.00 | 0.15 | 0.15 | 71 | 976.5 |
| 20260507134142 | 20 | 70 | 4.8 | 9.7 | 0.00 | 0.15 | 0.15 | 69 | 976.6 |
| 20260507133642 | 20 | 129 | 3.2 | 9.7 | 0.00 | 0.15 | 0.15 | 69 | 976.6 |
| 20260507132641 | 20 | 108 | 3.2 | 9.7 | 0.00 | 0.15 | 0.15 | 70 | 976.8 |
| 20260507132143 | 20 | 31 | 4.8 | 9.7 | 0.00 | 0.15 | 0.15 | 70 | 976.8 |
| 20260507131643 | 19 | 65 | 6.4 | 9.7 | 0.00 | 0.15 | 0.15 | 68 | 976.8 |
| 20260507131142 | 19 | 64 | 6.4 | 9.7 | 0.00 | 0.15 | 0.15 | 72 | 976.9 |
| 20260507130141 | 19 | 59 | 4.8 | 9.7 | 0.00 | 0.15 | 0.15 | 73 | 977.0 |
| 20260507125640 | 19 | 63 | 3.2 | 6.4 | 0.00 | 0.15 | 0.15 | 75 | 977.2 |
| 20260507124641 | 18 | 77 | 3.2 | 8.0 | 0.00 | 0.15 | 0.15 | 79 | 977.2 |
| 20260507124135 | 18 | 45 | 3.2 | 6.4 | 0.00 | 0.15 | 0.15 | 77 | 977.3 |
| 20260507123636 | 18 | 56 | 3.2 | 6.4 | 0.00 | 0.15 | 0.15 | 77 | 977.2 |
| 20260507123136 | 18 | 328 | 3.2 | 6.4 | 0.00 | 0.15 | 0.15 | 79 | 977.2 |
| 20260507122638 | 18 | 74 | 4.8 | 8.0 | 0.00 | 0.15 | 0.15 | 80 | 977.3 |
| 20260507122138 | 18 | 63 | 4.8 | 8.0 | 0.00 | 0.15 | 0.15 | 81 | 977.2 |
| 20260507121635 | 18 | 51 | 4.8 | 8.0 | 0.00 | 0.15 | 0.15 | 80 | 977.2 |
| 20260507121138 | 18 | 59 | 4.8 | 8.0 | 0.00 | 0.15 | 0.15 | 81 | 977.2 |
| 20260507115631 | 18 | 53 | 3.2 | 6.4 | 0.00 | 0.15 | 0.15 | 80 | 977.4 |
| 20260507115132 | 17 | 59 | 3.2 | 4.8 | 0.00 | 0.15 | 0.15 | 80 | 977.4 |
| 20260507114629 | 17 | 47 | 3.2 | 4.8 | 0.00 | 0.15 | 0.15 | 80 | 977.3 |
| 20260507113625 | 17 | 46 | 3.2 | 4.8 | 0.00 | 0.15 | 0.15 | 82 | 977.4 |
| 20260507113125 | 17 | 18 | 3.2 | 4.8 | 0.00 | 0.15 | 0.15 | 80 | 977.4 |
| 20260507112626 | 17 | 35 | 3.2 | 4.8 | 0.00 | 0.15 | 0.15 | 79 | 977.4 |
| 20260507112123 | 17 | 46 | 3.2 | 4.8 | 0.00 | 0.15 | 0.15 | 80 | 977.4 |
| 20260507111624 | 17 | 6 | 3.2 | 4.8 | 0.00 | 0.15 | 0.15 | 81 | 977.5 |
| 20260507111120 | 17 | 18 | 3.2 | 4.8 | 0.00 | 0.15 | 0.15 | 82 | 977.5 |
| 20260507110620 | 17 | 50 | 3.2 | 4.8 | 0.00 | 0.15 | 0.15 | 82 | 977.5 |
| 20260507105617 | 17 | 46 | 3.2 | 6.4 | 0.00 | 0.15 | 0.15 | 83 | 977.5 |
| 20260507105118 | 17 | 42 | 3.2 | 6.4 | 0.00 | 0.15 | 0.15 | 84 | 977.5 |
| 20260507104619 | 17 | 22 | 4.8 | 6.4 | 0.00 | 0.15 | 0.15 | 84 | 977.5 |
| 20260507104120 | 16 | 354 | 4.8 | 6.4 | 0.00 | 0.15 | 0.15 | 83 | 977.5 |
| 20260507103618 | 17 | 354 | 4.8 | 8.0 | 0.00 | 0.15 | 0.15 | 84 | 977.5 |
| 20260507103116 | 17 | 29 | 4.8 | 8.0 | 0.00 | 0.15 | 0.15 | 85 | 977.5 |
| 20260507102617 | 17 | 15 | 4.8 | 8.0 | 0.00 | 0.15 | 0.15 | 86 | 977.6 |
| 20260507102117 | 16 | 8 | 4.8 | 8.0 | 0.00 | 0.15 | 0.15 | 85 | 977.6 |
| 20260507101615 | 16 | 24 | 4.8 | 6.4 | 0.00 | 0.15 | 0.15 | 86 | 977.7 |
| 20260507100615 | 16 | 43 | 3.2 | 6.4 | 0.00 | 0.15 | 0.15 | 86 | 977.6 |
| 20260507095613 | 16 | 34 | 4.8 | 6.4 | 0.00 | 0.15 | 0.15 | 85 | 977.6 |
| 20260507095113 | 16 | 34 | 4.8 | 8.0 | 0.00 | 0.15 | 0.15 | 85 | 977.6 |
| 20260507094607 | 16 | 13 | 4.8 | 8.0 | 0.00 | 0.15 | 0.15 | 86 | 977.8 |
| 20260507093602 | 16 | 335 | 3.2 | 4.8 | 0.00 | 0.15 | 0.15 | 84 | 977.6 |
| 20260507093100 | 16 | 83 | 1.6 | 4.8 | 0.00 | 0.15 | 0.15 | 84 | 977.7 |
| 20260507092600 | 16 | 55 | 1.6 | 4.8 | 0.00 | 0.15 | 0.15 | 85 | 977.7 |
| 20260507092100 | 16 | 72 | 1.6 | 4.8 | 0.00 | 0.15 | 0.15 | 86 | 977.7 |
| 20260507091604 | 16 | 36 | 1.6 | 4.8 | 0.00 | 0.15 | 0.15 | 87 | 977.7 |
| 20260507091059 | 16 | 24 | 3.2 | 6.4 | 0.00 | 0.15 | 0.15 | 88 | 977.7 |
| 20260507090558 | 16 | 359 | 1.6 | 6.4 | 0.00 | 0.15 | 0.15 | 87 | 977.8 |
| 20260507090109 | 16 | 52 | 0.0 | 3.2 | 0.00 | 0.15 | 0.15 | 88 | 977.9 |
| 20260507085558 | 16 | 41 | 1.6 | 3.2 | 0.00 | 0.15 | 0.15 | 88 | 977.8 |
| 20260507084053 | 15 | 53 | 3.2 | 6.4 | 0.00 | 0.15 | 0.15 | 89 | 977.8 |
| 20260507083549 | 15 | 58 | 3.2 | 8.0 | 0.00 | 0.15 | 0.15 | 89 | 977.7 |
| 20260507083043 | 15 | 11 | 3.2 | 8.0 | 0.00 | 0.15 | 0.15 | 90 | 977.7 |
| 20260507082545 | 15 | 90 | 3.2 | 6.4 | 0.00 | 0.15 | 0.15 | 91 | 977.8 |
| 20260507082047 | 15 | 65 | 3.2 | 6.4 | 0.00 | 0.15 | 0.15 | 90 | 977.8 |
| 20260507081546 | 15 | 57 | 3.2 | 6.4 | 0.00 | 0.15 | 0.15 | 91 | 977.8 |
| 20260507081047 | 15 | 77 | 4.8 | 8.0 | 0.00 | 0.15 | 0.15 | 91 | 977.8 |
| 20260507080545 | 15 | 39 | 3.2 | 8.0 | 0.00 | 0.15 | 0.15 | 91 | 977.7 |
| 20260507080058 | 15 | 52 | 3.2 | 6.4 | 0.00 | 0.15 | 0.15 | 91 | 977.7 |
| 20260507075541 | 15 | 74 | 3.2 | 6.4 | 0.00 | 0.15 | 0.15 | 91 | 977.7 |
| 20260507075045 | 15 | 48 | 3.2 | 8.0 | 0.00 | 0.15 | 0.15 | 92 | 977.8 |
| 20260507074543 | 15 | 12 | 4.8 | 8.0 | 0.00 | 0.15 | 0.15 | 91 | 977.8 |
| 20260507074045 | 15 | 44 | 3.2 | 9.7 | 0.00 | 0.15 | 0.15 | 92 | 977.8 |
| 20260507073542 | 15 | 60 | 3.2 | 9.7 | 0.00 | 0.15 | 0.15 | 93 | 977.8 |
| 20260507073044 | 15 | 133 | 1.6 | 8.0 | 0.00 | 0.15 | 0.15 | 94 | 977.7 |
| 20260507072541 | 15 | 136 | 1.6 | 6.4 | 0.00 | 0.15 | 0.15 | 95 | 977.8 |
| 20260507072042 | 15 | 61 | 3.2 | 6.4 | 0.00 | 0.15 | 0.15 | 95 | 977.7 |
| 20260507070538 | 15 | 138 | 3.2 | 8.0 | 0.00 | 0.15 | 0.15 | 96 | 977.7 |
| 20260507070038 | 15 | 209 | 3.2 | 6.4 | 0.00 | 0.15 | 0.15 | 96 | 977.7 |
| 20260507065538 | 14 | 207 | 1.6 | 6.4 | 0.00 | 0.15 | 0.15 | 97 | 977.7 |
| 20260507064537 | 13 | 146 | 3.2 | 6.4 | 0.00 | 0.15 | 0.15 | 97 | 977.5 |
| 20260507064049 | 13 | 79 | 3.2 | 6.4 | 0.00 | 0.15 | 0.15 | 97 | 977.5 |
| 20260507063037 | 13 | 102 | 3.2 | 6.4 | 0.00 | 0.15 | 0.15 | 97 | 977.5 |
| 20260507062536 | 13 | 152 | 1.6 | 4.8 | 0.00 | 0.15 | 0.15 | 97 | 977.5 |
| 20260507062036 | 13 | 103 | 1.6 | 4.8 | 0.00 | 0.15 | 0.15 | 97 | 977.5 |
| 20260507061531 | 13 | 108 | 1.6 | 3.2 | 0.00 | 0.15 | 0.15 | 97 | 977.5 |
| 20260507061026 | 13 | 116 | 1.6 | 1.6 | 0.00 | 0.15 | 0.15 | 97 | 977.5 |
| 20260507060519 | 13 | 126 | 1.6 | 3.2 | 0.00 | 0.15 | 0.15 | 97 | 977.5 |
| 20260507060019 | 13 | 76 | 1.6 | 3.2 | 0.00 | 0.15 | 0.15 | 97 | 977.5 |
| 20260507055518 | 13 | 108 | 0.0 | 3.2 | 0.00 | 0.15 | 0.15 | 97 | 977.6 |
| 20260507055016 | 13 | 114 | 0.0 | 3.2 | 0.00 | 0.15 | 0.15 | 97 | 977.5 |
| 20260507054515 | 13 | 165 | 0.0 | 0.0 | 0.00 | 0.15 | 0.15 | 97 | 977.5 |
| 20260507054015 | 13 | 165 | 0.0 | 3.2 | 0.00 | 0.15 | 0.15 | 97 | 977.4 |
| 20260507053516 | 13 | 164 | 1.6 | 3.2 | 0.00 | 0.15 | 0.15 | 97 | 977.4 |
| 20260507053013 | 13 | 148 | 1.6 | 4.8 | 0.00 | 0.15 | 0.15 | 97 | 977.3 |
| 20260507052519 | 13 | 155 | 1.6 | 4.8 | 0.00 | 0.15 | 0.15 | 97 | 977.2 |
| 20260507052012 | 13 | 198 | 0.0 | 4.8 | 0.00 | 0.15 | 0.15 | 97 | 977.2 |
| 20260507051511 | 12 | 210 | 1.6 | 3.2 | 0.00 | 0.15 | 0.15 | 97 | 977.1 |
| 20260507051013 | 12 | 151 | 1.6 | 3.2 | 0.00 | 0.15 | 0.15 | 97 | 977.1 |
| 20260507050512 | 12 | 243 | 0.0 | 3.2 | 0.00 | 0.15 | 0.15 | 97 | 977.1 |
| 20260507050013 | 12 | 237 | 0.0 | 3.2 | 0.00 | 0.15 | 0.15 | 97 | 977.1 |
| 20260507045509 | 12 | 231 | 1.6 | 6.4 | 0.00 | 0.15 | 0.15 | 97 | 977.0 |
| 20260507045009 | 12 | 243 | 1.6 | 6.4 | 0.00 | 0.15 | 0.15 | 97 | 977.1 |
| 20260507044011 | 12 | 229 | 3.2 | 8.0 | 0.00 | 0.18 | 0.15 | 97 | 976.8 |
| 20260507043509 | 12 | 202 | 4.8 | 9.7 | 0.00 | 0.20 | 0.15 | 97 | 976.8 |
| 20260507043011 | 12 | 233 | 4.8 | 9.7 | 0.00 | 0.20 | 0.15 | 97 | 976.7 |
| 20260507042509 | 12 | 246 | 4.8 | 8.0 | 0.00 | 0.23 | 0.15 | 97 | 976.7 |
| 20260507041507 | 12 | 220 | 4.8 | 11.3 | 0.00 | 0.23 | 0.15 | 97 | 976.5 |
| 20260507041006 | 12 | 148 | 4.8 | 11.3 | 0.00 | 0.23 | 0.15 | 97 | 976.6 |
| 20260507040008 | 12 | 218 | 4.8 | 11.3 | 0.00 | 0.25 | 0.15 | 97 | 976.5 |
| 20260507035505 | 12 | 222 | 3.2 | 9.7 | 0.00 | 0.25 | 0.15 | 97 | 976.6 |
| 20260507035007 | 12 | 239 | 3.2 | 8.0 | 0.00 | 0.25 | 0.15 | 97 | 976.5 |
| 20260507034504 | 12 | 227 | 3.2 | 8.0 | 0.00 | 0.25 | 0.15 | 97 | 976.4 |
| 20260507033958 | 12 | 200 | 4.8 | 9.7 | 0.00 | 0.25 | 0.15 | 97 | 976.5 |
| 20260507033451 | 12 | 188 | 4.8 | 11.3 | 0.00 | 0.25 | 0.15 | 97 | 976.6 |
| 20260507031453 | 12 | 243 | 4.8 | 9.7 | 0.00 | 0.28 | 0.15 | 97 | 976.4 |
| 20260507030951 | 12 | 211 | 3.2 | 8.0 | 0.00 | 0.30 | 0.15 | 97 | 976.5 |
| 20260507030504 | 12 | 229 | 4.8 | 9.7 | 0.00 | 0.30 | 0.15 | 97 | 976.5 |
| 20260507025954 | 12 | 229 | 6.4 | 12.9 | 0.00 | 0.30 | 0.15 | 97 | 976.5 |
| 20260507025452 | 12 | 212 | 6.4 | 12.9 | 0.00 | 0.30 | 0.15 | 97 | 976.6 |
| 20260507024953 | 12 | 231 | 6.4 | 11.3 | 0.00 | 0.30 | 0.15 | 97 | 976.5 |
| 20260507024454 | 12 | 188 | 4.8 | 11.3 | 0.00 | 0.30 | 0.15 | 97 | 976.5 |
| 20260507023955 | 12 | 182 | 6.4 | 12.9 | 0.00 | 0.30 | 0.15 | 97 | 976.4 |
| 20260507023507 | 12 | 219 | 8.0 | 16.1 | 0.00 | 0.30 | 0.15 | 97 | 976.6 |
| 20260507022446 | 13 | 153 | 8.0 | 14.5 | 0.00 | 0.30 | 0.15 | 97 | 976.6 |
| 20260507021944 | 13 | 218 | 8.0 | 14.5 | 0.00 | 0.30 | 0.15 | 97 | 976.6 |
| 20260507021444 | 13 | 171 | 6.4 | 12.9 | 0.00 | 0.30 | 0.15 | 97 | 976.6 |
| 20260507020956 | 13 | 216 | 6.4 | 11.3 | 0.00 | 0.30 | 0.15 | 97 | 976.6 |
| 20260507020444 | 13 | 211 | 8.0 | 14.5 | 0.00 | 0.30 | 0.15 | 97 | 976.6 |
| 20260507015943 | 13 | 214 | 8.0 | 14.5 | 0.00 | 0.30 | 0.15 | 97 | 976.6 |
| 20260507015446 | 13 | 169 | 8.0 | 14.5 | 0.00 | 0.30 | 0.15 | 97 | 976.7 |
| 20260507014445 | 13 | 199 | 6.4 | 12.9 | 0.03 | 0.30 | 0.15 | 97 | 976.6 |
| 20260507013943 | 13 | 191 | 6.4 | 12.9 | 0.03 | 0.30 | 0.15 | 97 | 976.5 |
| 20260507013443 | 13 | 221 | 6.4 | 14.5 | 0.03 | 0.30 | 0.15 | 97 | 976.7 |
| 20260507012944 | 13 | 232 | 8.0 | 14.5 | 0.03 | 0.30 | 0.15 | 96 | 976.7 |
| 20260507012443 | 13 | 207 | 6.4 | 14.5 | 0.03 | 0.30 | 0.15 | 96 | 976.7 |
| 20260507011946 | 13 | 211 | 6.4 | 12.9 | 0.03 | 0.30 | 0.15 | 96 | 976.7 |
| 20260507011443 | 13 | 228 | 6.4 | 12.9 | 0.03 | 0.33 | 0.15 | 96 | 976.7 |
| 20260507010937 | 13 | 250 | 4.8 | 9.7 | 0.05 | 0.33 | 0.15 | 96 | 976.7 |
| 20260507010431 | 13 | 211 | 4.8 | 12.9 | 0.05 | 0.33 | 0.15 | 96 | 976.7 |
| 20260507005928 | 13 | 256 | 4.8 | 12.9 | 0.08 | 0.33 | 0.15 | 96 | 976.8 |
| 20260507005427 | 13 | 293 | 3.2 | 8.0 | 0.08 | 0.30 | 0.15 | 96 | 976.8 |
| 20260507004928 | 13 | 227 | 4.8 | 9.7 | 0.10 | 0.30 | 0.13 | 96 | 976.7 |
| 20260507004430 | 13 | 221 | 4.8 | 11.3 | 0.10 | 0.30 | 0.13 | 96 | 976.6 |
| 20260507003929 | 13 | 206 | 6.4 | 12.9 | 0.10 | 0.30 | 0.13 | 96 | 976.6 |
| 20260507003431 | 13 | 202 | 6.4 | 12.9 | 0.10 | 0.30 | 0.13 | 96 | 976.6 |
| 20260507002929 | 13 | 200 | 6.4 | 12.9 | 0.10 | 0.30 | 0.13 | 96 | 976.5 |
| 20260507001952 | 13 | 218 | 4.8 | 11.3 | 0.10 | 0.30 | 0.13 | 95 | 976.4 |
| 20260507000927 | 14 | 227 | 3.2 | 8.0 | 0.08 | 0.28 | 0.10 | 95 | 976.3 |
| 20260507000431 | 14 | 217 | 4.8 | 12.9 | 0.05 | 0.25 | 0.08 | 95 | 976.3 |
| 20260506235927 | 14 | 181 | 3.2 | 12.9 | 0.05 | 0.23 | 0.05 | 95 | 976.4 |
| 20260506235425 | 14 | 141 | 3.2 | 8.0 | 0.03 | 0.23 | 0.05 | 95 | 976.6 |
| 20260506234413 | 14 | 186 | 6.4 | 12.9 | 0.00 | 0.20 | 0.03 | 95 | 976.7 |
| 20260506233911 | 14 | 208 | 4.8 | 12.9 | 0.00 | 0.20 | 0.03 | 95 | 976.7 |
| 20260506233409 | 14 | 206 | 4.8 | 12.9 | 0.00 | 0.20 | 0.03 | 95 | 976.7 |
| 20260506232908 | 14 | 208 | 4.8 | 11.3 | 0.03 | 0.20 | 0.03 | 95 | 976.7 |
| 20260506232407 | 14 | 247 | 4.8 | 11.3 | 0.03 | 0.20 | 0.03 | 95 | 976.6 |
| 20260506231419 | 14 | 207 | 4.8 | 9.7 | 0.03 | 0.20 | 0.03 | 95 | 976.5 |
| 20260506230908 | 14 | 248 | 4.8 | 11.3 | 0.03 | 0.20 | 0.03 | 95 | 976.6 |